Airfield :
LOGIN :

Register | Disclaimer

   EN    FR    IT 

 










Legend :    VFR   Marginal VFR   IFR   Intensive IFR   Very Intensive IFR
Visi :
Ceiling :
>= 8 km
>= 3000ft
5 to 8 km
1000 to 3000 ft
1500m to 5 km
500 to 1000 ft
800 to 1500m
200 to 500 ft
< 800m
< 200 ft
Symbols :   Thunderstorms  Fog  Heavy snow  Heavy precipitations  Wind > 20 kt
SIGMETs :     Misc.  Thunderstorms  Icing  Turbulence  Mountain Waves  Volcanic Ashes






- Airport Elevation : 2356 ft


LZTT - Poprad Tatry

CURRENT METAR :
  • 121630Z 05012KT 9999 FEW060 22/11 Q1020

EXPIRED METARs :
  • 121600Z 05010KT 9999 FEW060 23/12 Q1020 NOSIG
  • 121530Z 05011KT 9999 FEW060 24/12 Q1020 NOSIG
  • 121500Z 05011KT 9999 FEW060 24/13 Q1020 NOSIG
  • 121430Z 06011KT 030V090 9999 FEW060 24/13 Q1020 NOSIG

TAF TAF LZTT
Valid from the 12 at 12:00 until the 13 at 12:00 UTC


121100Z 1212/1312 06010KT 9999 SCT045
PROB30
TEMPO 1212/1216 SHRA FEW045CB BKN060
BECMG 1218/1220 VRB02KT CAVOK
PROB30
TEMPO 1302/1306 3000 BCFG FEW002
BECMG 1309/1311 06012KT 9999 SCT045



MET'MAP, your aeronautical weather chart ! - Copyright ORBIFLY December 2007 - Disclaimer

ORBIFLY MET'MAP TEAM :

Programming & Development : Alexandra Zaïnal
Concept & original design : Baudouin d'Aumeries
Assistance for programming : Marc-Olivier Méhu
Technical & hardware support : Manuel Goepfert

Contact : metmap@orbifly.com




SOURCES & CREDITS :

   NOAA